Terminal Aerodrome Forecast
Issued by NWS

Current Version | Previous Version | Text Only | Print | Product List | Glossary On
Versions: 1 2 3 4 5 6 7 8 9 10 11 12 13 14 15
000
FTUS42 TJSJ 241800 CCA
TAFKPK
TAF COR
TKPK 241844Z 2418/2518 10011KT P6SM VCSH SCT020
     FM242200 09005KT P6SM FEW022
     FM250400 09002KT P6SM VCSH SCT018
     FM251400 10012KT P6SM FEW024=

USA.gov is the U.S. government's official web portal to all federal, state and local government web resources and services.